sensor_id;sensor_type;location;lat;lon;timestamp;temperature;humidity
32334;DHT22;18810;53.040;8.850;2023-02-25T00:01:25;5.00;99.90
32334;DHT22;18810;53.040;8.850;2023-02-25T00:03:55;5.00;99.90
32334;DHT22;18810;53.040;8.850;2023-02-25T00:06:21;4.90;99.90
32334;DHT22;18810;53.040;8.850;2023-02-25T00:08:48;4.90;99.90
32334;DHT22;18810;53.040;8.850;2023-02-25T00:11:16;4.90;99.90
32334;DHT22;18810;53.040;8.850;2023-02-25T00:13:43;4.90;99.90
32334;DHT22;18810;53.040;8.850;2023-02-25T00:16:12;4.80;99.90
32334;DHT22;18810;53.040;8.850;2023-02-25T00:18:38;4.80;99.90
32334;DHT22;18810;53.040;8.850;2023-02-25T00:21:09;4.90;99.90
32334;DHT22;18810;53.040;8.850;2023-02-25T00:23:40;4.80;99.90
32334;DHT22;18810;53.040;8.850;2023-02-25T00:26:06;4.70;99.90
32334;DHT22;18810;53.040;8.850;2023-02-25T00:28:34;4.70;99.90
32334;DHT22;18810;53.040;8.850;2023-02-25T00:31:05;4.60;99.90
32334;DHT22;18810;53.040;8.850;2023-02-25T00:33:31;4.60;99.90
32334;DHT22;18810;53.040;8.850;2023-02-25T00:35:56;4.60;99.90
32334;DHT22;18810;53.040;8.850;2023-02-25T00:38:25;4.60;99.90
32334;DHT22;18810;53.040;8.850;2023-02-25T00:40:52;4.60;99.90
32334;DHT22;18810;53.040;8.850;2023-02-25T00:43:17;4.60;99.90
32334;DHT22;18810;53.040;8.850;2023-02-25T00:45:43;4.60;99.90
32334;DHT22;18810;53.040;8.850;2023-02-25T00:48:09;4.70;99.90
32334;DHT22;18810;53.040;8.850;2023-02-25T00:50:35;4.70;99.90
32334;DHT22;18810;53.040;8.850;2023-02-25T00:53:04;4.70;99.90
32334;DHT22;18810;53.040;8.850;2023-02-25T00:55:30;4.70;99.90
32334;DHT22;18810;53.040;8.850;2023-02-25T00:57:59;4.70;99.90
32334;DHT22;18810;53.040;8.850;2023-02-25T01:00:25;4.60;99.90
32334;DHT22;18810;53.040;8.850;2023-02-25T01:02:51;4.70;99.90
32334;DHT22;18810;53.040;8.850;2023-02-25T01:05:17;4.70;99.90
32334;DHT22;18810;53.040;8.850;2023-02-25T01:07:42;4.70;99.90
32334;DHT22;18810;53.040;8.850;2023-02-25T01:10:09;4.70;99.90
32334;DHT22;18810;53.040;8.850;2023-02-25T01:12:35;4.70;99.90
32334;DHT22;18810;53.040;8.850;2023-02-25T01:15:02;4.70;99.90
32334;DHT22;18810;53.040;8.850;2023-02-25T01:17:28;4.70;99.90
32334;DHT22;18810;53.040;8.850;2023-02-25T01:19:53;4.60;99.90
32334;DHT22;18810;53.040;8.850;2023-02-25T01:22:19;4.60;99.90
32334;DHT22;18810;53.040;8.850;2023-02-25T01:24:46;4.60;99.90
32334;DHT22;18810;53.040;8.850;2023-02-25T01:27:11;4.60;99.90
32334;DHT22;18810;53.040;8.850;2023-02-25T01:29:39;4.60;99.90
32334;DHT22;18810;53.040;8.850;2023-02-25T01:32:07;4.60;99.90
32334;DHT22;18810;53.040;8.850;2023-02-25T01:34:34;4.60;99.90
32334;DHT22;18810;53.040;8.850;2023-02-25T01:36:59;4.50;99.90
32334;DHT22;18810;53.040;8.850;2023-02-25T01:39:26;4.50;99.90
32334;DHT22;18810;53.040;8.850;2023-02-25T01:41:55;4.40;99.90
32334;DHT22;18810;53.040;8.850;2023-02-25T01:46:54;4.60;99.90
32334;DHT22;18810;53.040;8.850;2023-02-25T01:51:52;4.50;99.90
32334;DHT22;18810;53.040;8.850;2023-02-25T01:54:19;4.50;99.90
32334;DHT22;18810;53.040;8.850;2023-02-25T01:56:49;4.40;99.90
32334;DHT22;18810;53.040;8.850;2023-02-25T01:59:17;4.40;99.90
32334;DHT22;18810;53.040;8.850;2023-02-25T02:01:45;4.40;99.90
32334;DHT22;18810;53.040;8.850;2023-02-25T02:04:12;4.40;99.90
32334;DHT22;18810;53.040;8.850;2023-02-25T02:06:41;4.40;99.90
32334;DHT22;18810;53.040;8.850;2023-02-25T02:09:10;4.50;99.90
32334;DHT22;18810;53.040;8.850;2023-02-25T02:11:37;4.50;99.90
32334;DHT22;18810;53.040;8.850;2023-02-25T02:14:05;4.50;99.90
32334;DHT22;18810;53.040;8.850;2023-02-25T02:25:08;4.60;99.90
32334;DHT22;18810;53.040;8.850;2023-02-25T02:30:54;4.70;99.90
32334;DHT22;18810;53.040;8.850;2023-02-25T02:45:43;4.60;99.90
32334;DHT22;18810;53.040;8.850;2023-02-25T02:48:27;4.40;99.90
32334;DHT22;18810;53.040;8.850;2023-02-25T02:50:58;4.40;99.90
32334;DHT22;18810;53.040;8.850;2023-02-25T02:53:31;4.50;99.90
32334;DHT22;18810;53.040;8.850;2023-02-25T02:56:00;4.50;99.90
32334;DHT22;18810;53.040;8.850;2023-02-25T02:58:32;4.50;99.90
32334;DHT22;18810;53.040;8.850;2023-02-25T03:01:05;4.60;99.90
32334;DHT22;18810;53.040;8.850;2023-02-25T03:03:35;4.50;99.90
32334;DHT22;18810;53.040;8.850;2023-02-25T03:06:18;4.60;99.90
32334;DHT22;18810;53.040;8.850;2023-02-25T03:08:52;4.70;99.90
32334;DHT22;18810;53.040;8.850;2023-02-25T03:11:20;4.70;99.90
32334;DHT22;18810;53.040;8.850;2023-02-25T03:13:46;4.70;99.90
32334;DHT22;18810;53.040;8.850;2023-02-25T03:16:20;4.60;99.90
32334;DHT22;18810;53.040;8.850;2023-02-25T03:18:52;4.70;99.90
32334;DHT22;18810;53.040;8.850;2023-02-25T03:21:25;4.80;99.90
32334;DHT22;18810;53.040;8.850;2023-02-25T03:23:53;4.70;99.90
32334;DHT22;18810;53.040;8.850;2023-02-25T03:26:29;4.80;99.90
32334;DHT22;18810;53.040;8.850;2023-02-25T03:28:56;4.70;99.90
32334;DHT22;18810;53.040;8.850;2023-02-25T03:31:35;4.70;99.90
32334;DHT22;18810;53.040;8.850;2023-02-25T03:34:07;4.70;99.90
32334;DHT22;18810;53.040;8.850;2023-02-25T03:37:02;4.60;99.90
32334;DHT22;18810;53.040;8.850;2023-02-25T03:39:37;4.60;99.90
32334;DHT22;18810;53.040;8.850;2023-02-25T03:42:08;4.50;99.90
32334;DHT22;18810;53.040;8.850;2023-02-25T03:44:50;4.50;99.90
32334;DHT22;18810;53.040;8.850;2023-02-25T03:47:18;4.60;99.90
32334;DHT22;18810;53.040;8.850;2023-02-25T03:49:55;4.50;99.90
32334;DHT22;18810;53.040;8.850;2023-02-25T03:52:24;4.50;99.90
32334;DHT22;18810;53.040;8.850;2023-02-25T03:54:53;4.60;99.90
32334;DHT22;18810;53.040;8.850;2023-02-25T03:57:22;4.60;99.90
32334;DHT22;18810;53.040;8.850;2023-02-25T03:59:53;4.50;99.90
32334;DHT22;18810;53.040;8.850;2023-02-25T04:02:29;4.40;99.90
32334;DHT22;18810;53.040;8.850;2023-02-25T04:04:55;4.40;99.90
32334;DHT22;18810;53.040;8.850;2023-02-25T04:07:22;4.30;99.90
32334;DHT22;18810;53.040;8.850;2023-02-25T04:09:47;4.20;99.90
32334;DHT22;18810;53.040;8.850;2023-02-25T04:12:13;4.20;99.90
32334;DHT22;18810;53.040;8.850;2023-02-25T04:14:40;4.20;99.90
32334;DHT22;18810;53.040;8.850;2023-02-25T04:17:06;4.20;99.90
32334;DHT22;18810;53.040;8.850;2023-02-25T04:19:34;4.10;99.90
32334;DHT22;18810;53.040;8.850;2023-02-25T04:22:00;4.00;99.90
32334;DHT22;18810;53.040;8.850;2023-02-25T04:24:26;4.00;99.90
32334;DHT22;18810;53.040;8.850;2023-02-25T04:26:51;3.90;99.90
32334;DHT22;18810;53.040;8.850;2023-02-25T04:29:24;3.90;99.90
32334;DHT22;18810;53.040;8.850;2023-02-25T04:31:50;3.90;99.90
32334;DHT22;18810;53.040;8.850;2023-02-25T04:34:16;3.90;99.90
32334;DHT22;18810;53.040;8.850;2023-02-25T04:36:42;3.90;99.90
32334;DHT22;18810;53.040;8.850;2023-02-25T04:39:13;3.90;99.90
32334;DHT22;18810;53.040;8.850;2023-02-25T04:41:39;3.80;99.90
32334;DHT22;18810;53.040;8.850;2023-02-25T04:44:06;3.80;99.90
32334;DHT22;18810;53.040;8.850;2023-02-25T04:46:35;3.80;99.90
32334;DHT22;18810;53.040;8.850;2023-02-25T04:49:02;3.80;99.90
32334;DHT22;18810;53.040;8.850;2023-02-25T04:51:28;3.80;99.90
32334;DHT22;18810;53.040;8.850;2023-02-25T04:53:53;3.80;99.90
32334;DHT22;18810;53.040;8.850;2023-02-25T04:56:19;3.90;99.90
32334;DHT22;18810;53.040;8.850;2023-02-25T04:58:45;3.90;99.90
32334;DHT22;18810;53.040;8.850;2023-02-25T05:01:11;3.80;99.90
32334;DHT22;18810;53.040;8.850;2023-02-25T05:03:37;4.00;99.90
32334;DHT22;18810;53.040;8.850;2023-02-25T05:06:04;4.00;99.90
32334;DHT22;18810;53.040;8.850;2023-02-25T05:08:31;4.00;99.90
32334;DHT22;18810;53.040;8.850;2023-02-25T05:10:57;3.90;99.90
32334;DHT22;18810;53.040;8.850;2023-02-25T05:13:23;3.80;99.90
32334;DHT22;18810;53.040;8.850;2023-02-25T05:15:49;3.70;99.90
32334;DHT22;18810;53.040;8.850;2023-02-25T05:18:15;3.70;99.90
32334;DHT22;18810;53.040;8.850;2023-02-25T05:20:43;3.70;99.90
32334;DHT22;18810;53.040;8.850;2023-02-25T05:23:09;3.70;99.90
32334;DHT22;18810;53.040;8.850;2023-02-25T05:25:36;3.80;99.90
32334;DHT22;18810;53.040;8.850;2023-02-25T05:28:06;3.80;99.90
32334;DHT22;18810;53.040;8.850;2023-02-25T05:30:32;3.70;99.90
32334;DHT22;18810;53.040;8.850;2023-02-25T05:32:58;3.70;99.90
32334;DHT22;18810;53.040;8.850;2023-02-25T05:35:23;3.70;99.90
32334;DHT22;18810;53.040;8.850;2023-02-25T05:37:49;3.70;99.90
32334;DHT22;18810;53.040;8.850;2023-02-25T05:40:15;3.70;99.90
32334;DHT22;18810;53.040;8.850;2023-02-25T05:42:41;3.70;99.90
32334;DHT22;18810;53.040;8.850;2023-02-25T05:45:08;3.80;99.90
32334;DHT22;18810;53.040;8.850;2023-02-25T05:47:37;3.80;99.90
32334;DHT22;18810;53.040;8.850;2023-02-25T05:50:03;3.90;99.90
32334;DHT22;18810;53.040;8.850;2023-02-25T05:52:28;3.80;99.90
32334;DHT22;18810;53.040;8.850;2023-02-25T05:54:54;3.90;99.90
32334;DHT22;18810;53.040;8.850;2023-02-25T05:57:20;3.90;99.90
32334;DHT22;18810;53.040;8.850;2023-02-25T05:59:48;3.90;99.90
32334;DHT22;18810;53.040;8.850;2023-02-25T06:02:14;3.80;99.90
32334;DHT22;18810;53.040;8.850;2023-02-25T06:04:40;3.70;99.90
32334;DHT22;18810;53.040;8.850;2023-02-25T06:07:06;3.70;99.90
32334;DHT22;18810;53.040;8.850;2023-02-25T06:09:31;3.70;99.90
32334;DHT22;18810;53.040;8.850;2023-02-25T06:11:59;3.70;99.90
32334;DHT22;18810;53.040;8.850;2023-02-25T06:14:25;3.70;99.90
32334;DHT22;18810;53.040;8.850;2023-02-25T06:16:51;3.50;99.90
32334;DHT22;18810;53.040;8.850;2023-02-25T06:19:24;3.60;99.90
32334;DHT22;18810;53.040;8.850;2023-02-25T06:21:54;3.60;99.90
32334;DHT22;18810;53.040;8.850;2023-02-25T06:24:21;3.70;99.90
32334;DHT22;18810;53.040;8.850;2023-02-25T06:26:47;3.70;99.90
32334;DHT22;18810;53.040;8.850;2023-02-25T06:29:12;3.80;99.90
32334;DHT22;18810;53.040;8.850;2023-02-25T06:31:38;3.80;99.90
32334;DHT22;18810;53.040;8.850;2023-02-25T06:34:04;3.90;99.90
32334;DHT22;18810;53.040;8.850;2023-02-25T06:36:31;3.80;99.90
32334;DHT22;18810;53.040;8.850;2023-02-25T06:38:57;3.80;99.90
32334;DHT22;18810;53.040;8.850;2023-02-25T06:41:23;3.70;99.90
32334;DHT22;18810;53.040;8.850;2023-02-25T06:43:49;3.60;99.90
32334;DHT22;18810;53.040;8.850;2023-02-25T06:46:18;3.50;99.90
32334;DHT22;18810;53.040;8.850;2023-02-25T06:48:44;3.60;99.90
32334;DHT22;18810;53.040;8.850;2023-02-25T06:51:10;3.70;99.90
32334;DHT22;18810;53.040;8.850;2023-02-25T06:53:38;3.80;99.90
32334;DHT22;18810;53.040;8.850;2023-02-25T06:56:05;3.80;99.90
32334;DHT22;18810;53.040;8.850;2023-02-25T06:58:33;4.00;99.90
32334;DHT22;18810;53.040;8.850;2023-02-25T07:00:59;4.00;99.90
32334;DHT22;18810;53.040;8.850;2023-02-25T07:03:24;4.00;99.90
32334;DHT22;18810;53.040;8.850;2023-02-25T07:05:50;4.00;99.90
32334;DHT22;18810;53.040;8.850;2023-02-25T07:08:16;4.00;99.90
32334;DHT22;18810;53.040;8.850;2023-02-25T07:10:42;4.10;99.90
32334;DHT22;18810;53.040;8.850;2023-02-25T07:13:08;4.10;99.90
32334;DHT22;18810;53.040;8.850;2023-02-25T07:15:35;4.10;99.90
32334;DHT22;18810;53.040;8.850;2023-02-25T07:18:02;4.00;99.90
32334;DHT22;18810;53.040;8.850;2023-02-25T07:20:28;4.00;99.90
32334;DHT22;18810;53.040;8.850;2023-02-25T07:22:54;4.00;99.90
32334;DHT22;18810;53.040;8.850;2023-02-25T07:25:20;4.00;99.90
32334;DHT22;18810;53.040;8.850;2023-02-25T07:27:46;4.00;99.90
32334;DHT22;18810;53.040;8.850;2023-02-25T07:30:12;4.10;99.90
32334;DHT22;18810;53.040;8.850;2023-02-25T07:32:39;4.20;99.90
32334;DHT22;18810;53.040;8.850;2023-02-25T07:35:06;4.20;99.90
32334;DHT22;18810;53.040;8.850;2023-02-25T07:37:31;4.30;99.90
32334;DHT22;18810;53.040;8.850;2023-02-25T07:39:57;4.20;99.90
32334;DHT22;18810;53.040;8.850;2023-02-25T07:42:25;4.10;99.90
32334;DHT22;18810;53.040;8.850;2023-02-25T07:44:52;4.00;99.90
32334;DHT22;18810;53.040;8.850;2023-02-25T07:47:18;4.00;99.90
32334;DHT22;18810;53.040;8.850;2023-02-25T07:49:44;3.90;99.90
32334;DHT22;18810;53.040;8.850;2023-02-25T07:52:10;3.90;99.90
32334;DHT22;18810;53.040;8.850;2023-02-25T07:54:36;3.80;99.90
32334;DHT22;18810;53.040;8.850;2023-02-25T07:57:01;3.90;99.90
32334;DHT22;18810;53.040;8.850;2023-02-25T07:59:28;3.90;99.90
32334;DHT22;18810;53.040;8.850;2023-02-25T08:01:54;4.00;99.90
32334;DHT22;18810;53.040;8.850;2023-02-25T08:04:19;4.20;99.90
32334;DHT22;18810;53.040;8.850;2023-02-25T08:06:45;4.10;99.90
32334;DHT22;18810;53.040;8.850;2023-02-25T08:09:11;4.00;99.90
32334;DHT22;18810;53.040;8.850;2023-02-25T08:11:38;4.10;99.90
32334;DHT22;18810;53.040;8.850;2023-02-25T08:14:04;4.20;99.90
32334;DHT22;18810;53.040;8.850;2023-02-25T08:16:30;4.20;99.90
32334;DHT22;18810;53.040;8.850;2023-02-25T08:18:57;4.30;99.90
32334;DHT22;18810;53.040;8.850;2023-02-25T08:21:23;4.40;99.90
32334;DHT22;18810;53.040;8.850;2023-02-25T08:23:51;4.40;99.90
32334;DHT22;18810;53.040;8.850;2023-02-25T08:26:17;4.30;99.90
32334;DHT22;18810;53.040;8.850;2023-02-25T08:28:44;4.30;99.90
32334;DHT22;18810;53.040;8.850;2023-02-25T08:31:10;4.30;99.90
32334;DHT22;18810;53.040;8.850;2023-02-25T08:33:38;4.40;99.90
32334;DHT22;18810;53.040;8.850;2023-02-25T08:36:09;4.40;99.90
32334;DHT22;18810;53.040;8.850;2023-02-25T08:38:36;4.30;99.90
32334;DHT22;18810;53.040;8.850;2023-02-25T08:41:03;4.10;99.90
32334;DHT22;18810;53.040;8.850;2023-02-25T08:43:29;4.40;99.90
32334;DHT22;18810;53.040;8.850;2023-02-25T08:45:54;4.50;99.90
32334;DHT22;18810;53.040;8.850;2023-02-25T08:48:21;4.90;99.90
32334;DHT22;18810;53.040;8.850;2023-02-25T08:50:47;5.20;99.90
32334;DHT22;18810;53.040;8.850;2023-02-25T08:53:12;5.60;99.90
32334;DHT22;18810;53.040;8.850;2023-02-25T08:55:38;5.60;99.90
32334;DHT22;18810;53.040;8.850;2023-02-25T08:58:05;5.50;99.90
32334;DHT22;18810;53.040;8.850;2023-02-25T09:00:31;5.70;99.90
32334;DHT22;18810;53.040;8.850;2023-02-25T09:02:57;6.20;99.90
32334;DHT22;18810;53.040;8.850;2023-02-25T09:05:22;6.60;99.90
32334;DHT22;18810;53.040;8.850;2023-02-25T09:07:49;6.60;99.90
32334;DHT22;18810;53.040;8.850;2023-02-25T09:10:16;6.80;99.90
32334;DHT22;18810;53.040;8.850;2023-02-25T09:12:42;7.10;99.90
32334;DHT22;18810;53.040;8.850;2023-02-25T09:15:10;7.30;99.90
32334;DHT22;18810;53.040;8.850;2023-02-25T09:17:37;7.60;99.90
32334;DHT22;18810;53.040;8.850;2023-02-25T09:20:03;8.20;99.90
32334;DHT22;18810;53.040;8.850;2023-02-25T09:22:34;8.80;99.90
32334;DHT22;18810;53.040;8.850;2023-02-25T09:24:59;8.10;99.90
32334;DHT22;18810;53.040;8.850;2023-02-25T09:27:25;7.50;99.90
32334;DHT22;18810;53.040;8.850;2023-02-25T09:29:51;7.40;99.90
32334;DHT22;18810;53.040;8.850;2023-02-25T09:32:19;7.60;99.90
32334;DHT22;18810;53.040;8.850;2023-02-25T09:34:45;7.80;99.90
32334;DHT22;18810;53.040;8.850;2023-02-25T09:37:14;8.20;99.90
32334;DHT22;18810;53.040;8.850;2023-02-25T09:39:39;7.80;99.90
32334;DHT22;18810;53.040;8.850;2023-02-25T09:42:51;7.40;99.90
32334;DHT22;18810;53.040;8.850;2023-02-25T09:45:18;6.70;99.90
32334;DHT22;18810;53.040;8.850;2023-02-25T09:47:58;6.00;99.90
32334;DHT22;18810;53.040;8.850;2023-02-25T09:50:29;5.80;99.90
32334;DHT22;18810;53.040;8.850;2023-02-25T09:53:07;6.10;99.90
32334;DHT22;18810;53.040;8.850;2023-02-25T09:55:38;6.70;99.90
32334;DHT22;18810;53.040;8.850;2023-02-25T10:06:37;7.20;99.90
32334;DHT22;18810;53.040;8.850;2023-02-25T10:26:23;7.50;99.90
32334;DHT22;18810;53.040;8.850;2023-02-25T10:28:53;7.50;99.90
32334;DHT22;18810;53.040;8.850;2023-02-25T10:31:21;7.60;99.90
32334;DHT22;18810;53.040;8.850;2023-02-25T10:33:50;7.50;99.90
32334;DHT22;18810;53.040;8.850;2023-02-25T10:36:30;7.20;99.90
32334;DHT22;18810;53.040;8.850;2023-02-25T10:38:57;7.30;99.90
32334;DHT22;18810;53.040;8.850;2023-02-25T10:41:23;7.40;99.90
32334;DHT22;18810;53.040;8.850;2023-02-25T10:43:52;8.00;99.90
32334;DHT22;18810;53.040;8.850;2023-02-25T10:46:37;8.30;99.90
32334;DHT22;18810;53.040;8.850;2023-02-25T10:49:21;8.30;99.90
32334;DHT22;18810;53.040;8.850;2023-02-25T10:54:49;8.60;99.90
32334;DHT22;18810;53.040;8.850;2023-02-25T10:57:26;9.10;99.80
32334;DHT22;18810;53.040;8.850;2023-02-25T11:00:04;9.20;99.40
32334;DHT22;18810;53.040;8.850;2023-02-25T11:02:35;9.60;99.40
32334;DHT22;18810;53.040;8.850;2023-02-25T11:05:03;10.40;98.40
32334;DHT22;18810;53.040;8.850;2023-02-25T11:15:37;10.90;95.80
32334;DHT22;18810;53.040;8.850;2023-02-25T11:18:28;11.00;95.30
32334;DHT22;18810;53.040;8.850;2023-02-25T11:21:04;10.40;96.20
32334;DHT22;18810;53.040;8.850;2023-02-25T11:26:24;10.70;94.20
32334;DHT22;18810;53.040;8.850;2023-02-25T11:28:52;10.60;94.40
32334;DHT22;18810;53.040;8.850;2023-02-25T11:31:19;10.70;94.60
32334;DHT22;18810;53.040;8.850;2023-02-25T11:36:23;12.40;92.70
32334;DHT22;18810;53.040;8.850;2023-02-25T11:39:14;13.10;92.30
32334;DHT22;18810;53.040;8.850;2023-02-25T11:41:45;13.00;91.30
32334;DHT22;18810;53.040;8.850;2023-02-25T11:44:27;11.90;91.50
32334;DHT22;18810;53.040;8.850;2023-02-25T11:47:02;10.70;92.80
32334;DHT22;18810;53.040;8.850;2023-02-25T12:00:23;11.20;91.80
32334;DHT22;18810;53.040;8.850;2023-02-25T12:27:53;13.80;90.10
32334;DHT22;18810;53.040;8.850;2023-02-25T12:38:59;12.10;88.60
32334;DHT22;18810;53.040;8.850;2023-02-25T12:41:49;13.40;86.10
32334;DHT22;18810;53.040;8.850;2023-02-25T12:47:23;14.00;82.30
32334;DHT22;18810;53.040;8.850;2023-02-25T12:50:25;13.30;84.80
32334;DHT22;18810;53.040;8.850;2023-02-25T13:12:27;14.90;78.70
32334;DHT22;18810;53.040;8.850;2023-02-25T13:31:07;11.50;85.10
32334;DHT22;18810;53.040;8.850;2023-02-25T13:36:36;11.50;84.90
32334;DHT22;18810;53.040;8.850;2023-02-25T13:45:32;13.00;84.30
32334;DHT22;18810;53.040;8.850;2023-02-25T13:53:25;11.70;82.80
32334;DHT22;18810;53.040;8.850;2023-02-25T14:01:35;13.20;80.80
32334;DHT22;18810;53.040;8.850;2023-02-25T14:10:02;12.00;83.70
32334;DHT22;18810;53.040;8.850;2023-02-25T14:31:55;10.80;83.80
32334;DHT22;18810;53.040;8.850;2023-02-25T14:40:16;12.60;84.60
32334;DHT22;18810;53.040;8.850;2023-02-25T14:45:50;12.00;82.70
32334;DHT22;18810;53.040;8.850;2023-02-25T14:48:34;11.30;84.40
32334;DHT22;18810;53.040;8.850;2023-02-25T15:20:36;10.50;85.70
32334;DHT22;18810;53.040;8.850;2023-02-25T15:23:06;10.10;86.30
32334;DHT22;18810;53.040;8.850;2023-02-25T15:26:22;10.20;87.40
32334;DHT22;18810;53.040;8.850;2023-02-25T15:28:50;10.40;86.60
32334;DHT22;18810;53.040;8.850;2023-02-25T15:31:27;9.20;87.00
32334;DHT22;18810;53.040;8.850;2023-02-25T15:36:48;8.90;90.70
32334;DHT22;18810;53.040;8.850;2023-02-25T15:42:05;9.10;90.40
32334;DHT22;18810;53.040;8.850;2023-02-25T15:44:34;9.20;90.70
32334;DHT22;18810;53.040;8.850;2023-02-25T15:47:23;9.10;90.60
32334;DHT22;18810;53.040;8.850;2023-02-25T15:49:50;8.70;90.60
32334;DHT22;18810;53.040;8.850;2023-02-25T15:52:56;8.70;91.30
32334;DHT22;18810;53.040;8.850;2023-02-25T15:57:57;10.10;90.10
32334;DHT22;18810;53.040;8.850;2023-02-25T16:11:41;9.70;86.90
32334;DHT22;18810;53.040;8.850;2023-02-25T16:14:27;9.50;87.30
32334;DHT22;18810;53.040;8.850;2023-02-25T16:19:54;9.20;88.90
32334;DHT22;18810;53.040;8.850;2023-02-25T16:22:26;8.90;88.10
32334;DHT22;18810;53.040;8.850;2023-02-25T16:24:54;8.80;89.40
32334;DHT22;18810;53.040;8.850;2023-02-25T16:30:15;8.40;90.30
32334;DHT22;18810;53.040;8.850;2023-02-25T16:35:56;8.00;91.30
32334;DHT22;18810;53.040;8.850;2023-02-25T16:41:07;7.60;92.90
32334;DHT22;18810;53.040;8.850;2023-02-25T16:43:36;7.40;93.70
32334;DHT22;18810;53.040;8.850;2023-02-25T16:46:07;7.20;94.00
32334;DHT22;18810;53.040;8.850;2023-02-25T16:48:50;7.10;94.70
32334;DHT22;18810;53.040;8.850;2023-02-25T16:51:24;6.90;94.80
32334;DHT22;18810;53.040;8.850;2023-02-25T16:54:20;6.90;95.20
32334;DHT22;18810;53.040;8.850;2023-02-25T16:56:50;6.80;95.60
32334;DHT22;18810;53.040;8.850;2023-02-25T16:59:21;6.70;95.10
32334;DHT22;18810;53.040;8.850;2023-02-25T17:04:35;6.60;95.50
32334;DHT22;18810;53.040;8.850;2023-02-25T17:07:07;6.50;95.50
32334;DHT22;18810;53.040;8.850;2023-02-25T17:09:35;6.50;95.60
32334;DHT22;18810;53.040;8.850;2023-02-25T17:12:08;6.50;95.90
32334;DHT22;18810;53.040;8.850;2023-02-25T17:14:35;6.50;95.60
32334;DHT22;18810;53.040;8.850;2023-02-25T17:17:01;6.50;95.30
32334;DHT22;18810;53.040;8.850;2023-02-25T17:19:27;6.50;94.70
32334;DHT22;18810;53.040;8.850;2023-02-25T17:21:57;6.30;94.10
32334;DHT22;18810;53.040;8.850;2023-02-25T17:24:26;6.10;94.40
32334;DHT22;18810;53.040;8.850;2023-02-25T17:26:53;5.70;94.50
32334;DHT22;18810;53.040;8.850;2023-02-25T17:29:20;5.60;94.90
32334;DHT22;18810;53.040;8.850;2023-02-25T17:31:51;5.60;94.80
32334;DHT22;18810;53.040;8.850;2023-02-25T17:34:38;5.60;95.00
32334;DHT22;18810;53.040;8.850;2023-02-25T17:37:06;5.60;95.10
32334;DHT22;18810;53.040;8.850;2023-02-25T17:39:34;5.20;97.00
32334;DHT22;18810;53.040;8.850;2023-02-25T17:42:00;5.10;98.20
32334;DHT22;18810;53.040;8.850;2023-02-25T17:47:01;4.70;99.90
32334;DHT22;18810;53.040;8.850;2023-02-25T17:49:32;4.40;99.90
32334;DHT22;18810;53.040;8.850;2023-02-25T17:52:02;4.10;99.90
32334;DHT22;18810;53.040;8.850;2023-02-25T17:54:32;4.00;99.90
32334;DHT22;18810;53.040;8.850;2023-02-25T17:57:09;4.00;99.90
32334;DHT22;18810;53.040;8.850;2023-02-25T17:59:40;4.10;99.90
32334;DHT22;18810;53.040;8.850;2023-02-25T18:04:48;4.00;99.90
32334;DHT22;18810;53.040;8.850;2023-02-25T18:07:30;3.90;99.90
32334;DHT22;18810;53.040;8.850;2023-02-25T18:10:00;3.60;99.90
32334;DHT22;18810;53.040;8.850;2023-02-25T18:12:34;3.60;99.90
32334;DHT22;18810;53.040;8.850;2023-02-25T18:15:17;3.60;99.90
32334;DHT22;18810;53.040;8.850;2023-02-25T18:17:51;3.50;99.90
32334;DHT22;18810;53.040;8.850;2023-02-25T18:20:33;3.60;99.90
32334;DHT22;18810;53.040;8.850;2023-02-25T18:25:40;3.40;99.90
32334;DHT22;18810;53.040;8.850;2023-02-25T18:28:12;3.40;99.90
32334;DHT22;18810;53.040;8.850;2023-02-25T18:30:38;3.40;99.90
32334;DHT22;18810;53.040;8.850;2023-02-25T18:33:04;3.10;99.90
32334;DHT22;18810;53.040;8.850;2023-02-25T18:35:31;2.90;99.90
32334;DHT22;18810;53.040;8.850;2023-02-25T18:37:57;2.80;99.90
32334;DHT22;18810;53.040;8.850;2023-02-25T18:40:24;2.80;99.90
32334;DHT22;18810;53.040;8.850;2023-02-25T18:42:51;2.70;99.90
32334;DHT22;18810;53.040;8.850;2023-02-25T18:45:20;2.60;99.90
32334;DHT22;18810;53.040;8.850;2023-02-25T18:47:47;2.50;99.90
32334;DHT22;18810;53.040;8.850;2023-02-25T18:50:13;2.50;99.90
32334;DHT22;18810;53.040;8.850;2023-02-25T18:52:40;2.60;99.90
32334;DHT22;18810;53.040;8.850;2023-02-25T18:55:08;2.50;99.90
32334;DHT22;18810;53.040;8.850;2023-02-25T18:57:34;2.50;99.90
32334;DHT22;18810;53.040;8.850;2023-02-25T18:59:59;2.40;99.90
32334;DHT22;18810;53.040;8.850;2023-02-25T19:02:28;2.30;99.90
32334;DHT22;18810;53.040;8.850;2023-02-25T19:04:55;2.20;99.90
32334;DHT22;18810;53.040;8.850;2023-02-25T19:07:24;2.30;99.90
32334;DHT22;18810;53.040;8.850;2023-02-25T19:09:50;2.20;99.90
32334;DHT22;18810;53.040;8.850;2023-02-25T19:12:16;2.20;99.90
32334;DHT22;18810;53.040;8.850;2023-02-25T19:14:44;2.10;99.90
32334;DHT22;18810;53.040;8.850;2023-02-25T19:17:15;2.10;99.90
32334;DHT22;18810;53.040;8.850;2023-02-25T19:19:41;2.00;99.90
32334;DHT22;18810;53.040;8.850;2023-02-25T19:22:14;1.90;99.90
32334;DHT22;18810;53.040;8.850;2023-02-25T19:24:42;1.80;99.90
32334;DHT22;18810;53.040;8.850;2023-02-25T19:27:29;1.70;99.90
32334;DHT22;18810;53.040;8.850;2023-02-25T19:29:56;1.80;99.90
32334;DHT22;18810;53.040;8.850;2023-02-25T19:32:23;1.80;99.90
32334;DHT22;18810;53.040;8.850;2023-02-25T19:34:49;1.80;99.90
32334;DHT22;18810;53.040;8.850;2023-02-25T19:37:18;1.80;99.90
32334;DHT22;18810;53.040;8.850;2023-02-25T19:39:45;1.80;99.90
32334;DHT22;18810;53.040;8.850;2023-02-25T19:42:11;1.80;99.90
32334;DHT22;18810;53.040;8.850;2023-02-25T19:44:38;1.70;99.90
32334;DHT22;18810;53.040;8.850;2023-02-25T19:47:05;1.70;99.90
32334;DHT22;18810;53.040;8.850;2023-02-25T19:49:31;1.80;99.90
32334;DHT22;18810;53.040;8.850;2023-02-25T19:51:57;1.70;99.90
32334;DHT22;18810;53.040;8.850;2023-02-25T19:54:23;1.60;99.90
32334;DHT22;18810;53.040;8.850;2023-02-25T19:56:48;1.60;99.90
32334;DHT22;18810;53.040;8.850;2023-02-25T19:59:14;1.60;99.90
32334;DHT22;18810;53.040;8.850;2023-02-25T20:01:41;1.60;99.90
32334;DHT22;18810;53.040;8.850;2023-02-25T20:04:07;1.50;99.90
32334;DHT22;18810;53.040;8.850;2023-02-25T20:06:35;1.60;99.90
32334;DHT22;18810;53.040;8.850;2023-02-25T20:09:04;1.60;99.90
32334;DHT22;18810;53.040;8.850;2023-02-25T20:11:30;1.70;99.90
32334;DHT22;18810;53.040;8.850;2023-02-25T20:13:56;1.60;99.90
32334;DHT22;18810;53.040;8.850;2023-02-25T20:16:22;1.80;99.90
32334;DHT22;18810;53.040;8.850;2023-02-25T20:18:52;1.70;99.90
32334;DHT22;18810;53.040;8.850;2023-02-25T20:21:20;1.80;99.90
32334;DHT22;18810;53.040;8.850;2023-02-25T20:23:46;1.80;99.90
32334;DHT22;18810;53.040;8.850;2023-02-25T20:26:13;1.90;99.90
32334;DHT22;18810;53.040;8.850;2023-02-25T20:28:40;1.90;99.90
32334;DHT22;18810;53.040;8.850;2023-02-25T20:31:12;2.00;99.90
32334;DHT22;18810;53.040;8.850;2023-02-25T20:33:38;2.10;99.90
32334;DHT22;18810;53.040;8.850;2023-02-25T20:36:26;2.20;99.90
32334;DHT22;18810;53.040;8.850;2023-02-25T20:41:48;2.10;99.90